createdAt,value
2019-01-16T00:01:07.188Z,99451.02
2019-01-16T00:02:18.786Z,99451.20
2019-01-16T00:03:24.554Z,99461.56
2019-01-16T00:04:44.299Z,99459.70
2019-01-16T00:05:50.090Z,99459.89
2019-01-16T00:06:53.104Z,99455.55
2019-01-16T00:07:56.116Z,99463.57
2019-01-16T00:09:11.004Z,99468.06
2019-01-16T00:10:30.353Z,99456.89
2019-01-16T00:11:33.543Z,99464.39
2019-01-16T00:12:42.124Z,99462.56
2019-01-16T00:13:45.140Z,99467.91
2019-01-16T00:14:50.839Z,99470.58
2019-01-16T00:15:56.512Z,99472.91
2019-01-16T00:16:59.764Z,99474.58
2019-01-16T00:18:05.544Z,99479.59
2019-01-16T00:19:25.246Z,99469.73
2019-01-16T00:20:31.041Z,99472.91
2019-01-16T00:21:34.068Z,99474.73
2019-01-16T00:22:51.976Z,99461.91
2019-01-16T00:23:57.879Z,99467.73
2019-01-16T00:25:00.951Z,99472.59
2019-01-16T00:26:09.600Z,99473.59
2019-01-16T00:27:15.144Z,99469.25
2019-01-16T00:28:20.691Z,99477.59
2019-01-16T00:29:32.657Z,99474.59
2019-01-16T00:30:35.671Z,99476.75
2019-01-16T00:31:38.694Z,99477.27
2019-01-16T00:32:44.472Z,99476.75
2019-01-16T00:33:50.056Z,99479.94
2019-01-16T00:34:53.070Z,99482.09
2019-01-16T00:36:13.108Z,99485.61
2019-01-16T00:37:34.004Z,99485.42
2019-01-16T00:38:37.016Z,99485.61
2019-01-16T00:39:48.813Z,99486.09
2019-01-16T00:41:03.946Z,99485.28
2019-01-16T00:42:06.960Z,99491.63
2019-01-16T00:43:12.859Z,99489.44
2019-01-16T00:44:24.904Z,99482.95
2019-01-16T00:45:36.961Z,99488.63
2019-01-16T00:46:56.502Z,99480.77
2019-01-16T00:48:08.084Z,99487.93
2019-01-16T00:49:28.023Z,99480.92
2019-01-16T00:50:36.788Z,99484.93
2019-01-16T00:51:57.691Z,99480.59
2019-01-16T00:53:17.295Z,99490.79
2019-01-16T00:54:26.287Z,99486.12
2019-01-16T00:55:46.114Z,99484.95
2019-01-16T00:56:55.389Z,99484.13
2019-01-16T00:58:16.386Z,99483.80
2019-01-16T00:59:37.395Z,99484.28
2019-01-16T01:00:46.369Z,99482.95
2019-01-16T01:01:49.387Z,99486.62
2019-01-16T01:02:58.408Z,99479.95
2019-01-16T01:04:01.434Z,99479.62
2019-01-16T01:05:09.420Z,99487.30
2019-01-16T01:06:27.191Z,99483.14
2019-01-16T01:07:46.994Z,99483.30
2019-01-16T01:09:01.872Z,99486.30
2019-01-16T01:10:10.505Z,99482.81
2019-01-16T01:11:19.053Z,99490.30
2019-01-16T01:12:27.825Z,99489.30
2019-01-16T01:13:39.971Z,99492.97
2019-01-16T01:14:59.657Z,99490.81
2019-01-16T01:16:08.335Z,99491.63
2019-01-16T01:17:28.204Z,99487.62
2019-01-16T01:18:40.919Z,99491.63
2019-01-16T01:19:41.702Z,99494.30
2019-01-16T01:20:56.476Z,99493.97
2019-01-16T01:22:14.417Z,99493.16
2019-01-16T01:23:17.432Z,99497.64
2019-01-16T01:24:37.277Z,99493.97
2019-01-16T01:25:49.132Z,99494.98
2019-01-16T01:27:04.338Z,99491.98
2019-01-16T01:28:22.366Z,99492.83
2019-01-16T01:29:25.387Z,99498.65
2019-01-16T01:30:44.855Z,99496.98
2019-01-16T01:31:50.392Z,99500.98
2019-01-16T01:32:55.925Z,99497.98
2019-01-16T01:33:58.941Z,99496.98
2019-01-16T01:35:13.902Z,99500.66
2019-01-16T01:36:33.328Z,99501.17
2019-01-16T01:37:42.053Z,99504.66
2019-01-16T01:38:45.069Z,99506.00
2019-01-16T01:39:48.083Z,99503.33
2019-01-16T01:40:51.099Z,99502.33
2019-01-16T01:41:54.375Z,99510.67
2019-01-16T01:42:57.397Z,99505.34
2019-01-16T01:44:03.431Z,99502.86
2019-01-16T01:45:14.821Z,99506.67
2019-01-16T01:46:29.503Z,99504.84
2019-01-16T01:47:35.508Z,99507.00
2019-01-16T01:48:44.117Z,99511.00
2019-01-16T01:49:47.145Z,99512.34
2019-01-16T01:51:06.290Z,99511.00
2019-01-16T01:52:11.829Z,99510.19
2019-01-16T01:53:17.788Z,99513.19
2019-01-16T01:54:23.384Z,99517.20
2019-01-16T01:55:29.141Z,99517.20
2019-01-16T01:56:48.836Z,99519.34
2019-01-16T01:58:09.797Z,99524.69
2019-01-16T01:59:15.731Z,99519.02
2019-01-16T02:00:27.196Z,99521.69
2019-01-16T02:01:46.895Z,99518.53
2019-01-16T02:02:49.909Z,99510.20
2019-01-16T02:03:52.936Z,99523.02
2019-01-16T02:04:58.705Z,99521.69
2019-01-16T02:06:07.738Z,99524.54
2019-01-16T02:07:22.805Z,99529.20
2019-01-16T02:08:40.755Z,99522.69
2019-01-16T02:09:49.620Z,99528.36
2019-01-16T02:10:52.640Z,99528.36
2019-01-16T02:12:10.728Z,99535.03
2019-01-16T02:13:16.272Z,99526.69
2019-01-16T02:14:25.040Z,99528.03
2019-01-16T02:15:39.674Z,99530.36
2019-01-16T02:16:48.885Z,99523.69
2019-01-16T02:17:51.900Z,99523.69
2019-01-16T02:19:03.882Z,99534.70
2019-01-16T02:20:10.398Z,99527.36
2019-01-16T02:21:13.532Z,99520.53
2019-01-16T02:22:22.469Z,99519.36
2019-01-16T02:23:31.513Z,99519.69
2019-01-16T02:24:52.828Z,99520.20
2019-01-16T02:26:01.380Z,99528.70
2019-01-16T02:27:07.664Z,99524.20
2019-01-16T02:28:10.681Z,99533.03
2019-01-16T02:29:13.863Z,99526.36
2019-01-16T02:30:19.435Z,99530.36
2019-01-16T02:31:22.506Z,99530.55
2019-01-16T02:32:28.057Z,99533.03
2019-01-16T02:33:36.624Z,99527.70
2019-01-16T02:34:42.669Z,99522.88
2019-01-16T02:35:51.518Z,99530.03
2019-01-16T02:36:57.348Z,99526.03
2019-01-16T02:38:00.367Z,99522.88
2019-01-16T02:39:15.597Z,99525.03
2019-01-16T02:40:27.701Z,99522.02
2019-01-16T02:41:36.547Z,99525.03
2019-01-16T02:42:42.100Z,99526.36
2019-01-16T02:44:01.634Z,99516.02
2019-01-16T02:45:21.176Z,99519.69
2019-01-16T02:46:36.100Z,99521.35
2019-01-16T02:47:51.035Z,99513.02
2019-01-16T02:48:56.578Z,99518.35
2019-01-16T02:50:02.488Z,99518.88
2019-01-16T02:51:05.516Z,99515.02
2019-01-16T02:52:25.252Z,99524.03
2019-01-16T02:53:43.213Z,99516.69
2019-01-16T02:54:46.232Z,99516.36
2019-01-16T02:55:55.144Z,99518.20
2019-01-16T02:57:07.236Z,99523.03
2019-01-16T02:58:10.255Z,99527.55
2019-01-16T02:59:15.840Z,99532.38
2019-01-16T03:00:35.509Z,99524.03
2019-01-16T03:01:41.049Z,99524.88
2019-01-16T03:02:47.061Z,99519.54
2019-01-16T03:03:50.072Z,99520.87
2019-01-16T03:05:05.150Z,99523.21
2019-01-16T03:06:13.977Z,99535.04
2019-01-16T03:07:16.994Z,99524.55
2019-01-16T03:08:20.010Z,99524.55
2019-01-16T03:09:25.570Z,99524.03
2019-01-16T03:10:31.096Z,99524.03
2019-01-16T03:11:40.057Z,99479.86
2019-01-16T03:12:59.977Z,99520.03
2019-01-16T03:14:02.992Z,99523.55
2019-01-16T03:15:08.605Z,99517.36
2019-01-16T03:16:28.054Z,99517.36
2019-01-16T03:17:45.909Z,99513.51
2019-01-16T03:19:04.772Z,99511.69
2019-01-16T03:20:10.752Z,99518.36
2019-01-16T03:21:25.706Z,99527.04
2019-01-16T03:22:45.148Z,99523.19
2019-01-16T03:23:48.155Z,99533.05
2019-01-16T03:25:03.009Z,99532.39
2019-01-16T03:26:06.029Z,99525.87
2019-01-16T03:27:21.096Z,99525.72
2019-01-16T03:28:24.108Z,99526.20
2019-01-16T03:29:27.127Z,99523.06
2019-01-16T03:30:32.947Z,99523.21
2019-01-16T03:31:50.912Z,99523.73
2019-01-16T03:32:53.978Z,99523.88
2019-01-16T03:34:15.102Z,99528.07
2019-01-16T03:35:18.121Z,99524.55
2019-01-16T03:36:24.157Z,99532.23
2019-01-16T03:37:29.809Z,99526.70
2019-01-16T03:38:47.748Z,99531.41
2019-01-16T03:40:02.529Z,99532.38
2019-01-16T03:41:22.777Z,99534.56
2019-01-16T03:42:34.695Z,99532.23
2019-01-16T03:43:44.452Z,99527.05
2019-01-16T03:44:53.084Z,99538.08
2019-01-16T03:45:56.116Z,99533.71
2019-01-16T03:47:05.200Z,99535.05
2019-01-16T03:48:24.618Z,99531.41
2019-01-16T03:49:33.241Z,99529.22
2019-01-16T03:50:48.193Z,99536.75
2019-01-16T03:51:57.011Z,99535.74
2019-01-16T03:53:00.024Z,99534.08
2019-01-16T03:54:03.042Z,99532.74
2019-01-16T03:55:12.663Z,99534.89
2019-01-16T03:56:24.273Z,99533.41
2019-01-16T03:57:45.424Z,99530.73
2019-01-16T03:58:57.109Z,99531.56
2019-01-16T04:00:16.517Z,99528.07
2019-01-16T04:01:31.344Z,99526.73
2019-01-16T04:02:46.198Z,99522.22
2019-01-16T04:03:54.992Z,99517.38
2019-01-16T04:05:14.680Z,99521.40
2019-01-16T04:06:26.569Z,99515.06
2019-01-16T04:07:46.175Z,99514.73
2019-01-16T04:09:07.183Z,99509.88
2019-01-16T04:10:28.967Z,99510.39
2019-01-16T04:11:32.031Z,99511.73
2019-01-16T04:12:40.837Z,99511.39
2019-01-16T04:13:49.611Z,99511.88
2019-01-16T04:14:55.480Z,99510.22
2019-01-16T04:15:58.493Z,99510.22
2019-01-16T04:17:04.186Z,99508.36
2019-01-16T04:18:22.319Z,99504.87
2019-01-16T04:19:34.162Z,99509.21
2019-01-16T04:20:43.233Z,99507.39
2019-01-16T04:21:58.381Z,99504.72
2019-01-16T04:23:01.402Z,99502.05
2019-01-16T04:24:04.414Z,99506.55
2019-01-16T04:25:16.239Z,99508.73
2019-01-16T04:26:19.255Z,99505.70
2019-01-16T04:27:34.567Z,99508.36
2019-01-16T04:28:40.376Z,99504.72
2019-01-16T04:29:46.046Z,99512.73
2019-01-16T04:30:54.745Z,99506.88
2019-01-16T04:32:00.538Z,99510.22
2019-01-16T04:33:20.418Z,99510.06
2019-01-16T04:34:23.437Z,99512.73
2019-01-16T04:35:32.504Z,99512.73
2019-01-16T04:36:52.219Z,99514.06
2019-01-16T04:38:00.810Z,99516.73
2019-01-16T04:39:14.746Z,99522.89
2019-01-16T04:40:20.284Z,99521.06
2019-01-16T04:41:28.819Z,99516.22
2019-01-16T04:42:50.270Z,99523.41
2019-01-16T04:44:10.119Z,99525.55
2019-01-16T04:45:13.264Z,99523.04
2019-01-16T04:46:16.290Z,99523.04
2019-01-16T04:47:27.855Z,99524.89
2019-01-16T04:48:30.881Z,99522.22
2019-01-16T04:49:36.537Z,99525.70
2019-01-16T04:50:42.488Z,99519.03
2019-01-16T04:51:51.286Z,99512.88
2019-01-16T04:52:57.113Z,99521.70
2019-01-16T04:54:15.279Z,99518.55
2019-01-16T04:55:33.106Z,99519.03
2019-01-16T04:56:41.917Z,99516.89
2019-01-16T04:57:53.640Z,99517.38
2019-01-16T04:59:02.668Z,99518.22
2019-01-16T05:00:13.640Z,99519.55
2019-01-16T05:01:34.846Z,99522.55
2019-01-16T05:02:37.868Z,99524.38
2019-01-16T05:03:40.898Z,99512.88
2019-01-16T05:04:49.518Z,99519.89
2019-01-16T05:05:52.571Z,99512.37
2019-01-16T05:06:58.120Z,99518.88
2019-01-16T05:08:10.202Z,99519.41
2019-01-16T05:09:18.754Z,99523.73
2019-01-16T05:10:21.768Z,99516.22
2019-01-16T05:11:27.511Z,99518.40
2019-01-16T05:12:33.133Z,99514.06
2019-01-16T05:13:36.178Z,99516.73
2019-01-16T05:14:39.170Z,99523.73
2019-01-16T05:15:42.192Z,99522.55
2019-01-16T05:16:47.968Z,99525.22
2019-01-16T05:17:51.024Z,99519.03
2019-01-16T05:19:05.849Z,99530.08
2019-01-16T05:20:26.026Z,99523.04
2019-01-16T05:21:29.053Z,99515.03
2019-01-16T05:22:50.326Z,99520.73
2019-01-16T05:23:59.180Z,99519.03
2019-01-16T05:25:02.206Z,99509.70
2019-01-16T05:26:05.218Z,99516.37
2019-01-16T05:27:14.055Z,99517.89
2019-01-16T05:28:19.579Z,99517.38
2019-01-16T05:29:25.413Z,99521.04
2019-01-16T05:30:37.325Z,99520.04
2019-01-16T05:31:40.340Z,99520.04
2019-01-16T05:32:45.856Z,99517.38
2019-01-16T05:33:48.886Z,99513.37
2019-01-16T05:34:54.732Z,99516.89
2019-01-16T05:36:06.537Z,99517.38
2019-01-16T05:37:15.350Z,99520.37
2019-01-16T05:38:27.265Z,99518.22
2019-01-16T05:39:39.428Z,99513.70
2019-01-16T05:40:51.548Z,99518.06
2019-01-16T05:41:54.574Z,99515.88
2019-01-16T05:43:09.250Z,99512.73
2019-01-16T05:44:12.318Z,99514.06
2019-01-16T05:45:30.469Z,99515.40
2019-01-16T05:46:33.485Z,99516.73
2019-01-16T05:47:36.526Z,99518.55
2019-01-16T05:48:42.205Z,99514.22
2019-01-16T05:49:46.946Z,99515.55
2019-01-16T05:50:50.180Z,99513.88
2019-01-16T05:52:07.828Z,99512.03
2019-01-16T05:53:19.456Z,99512.03
2019-01-16T05:54:25.158Z,99509.36
2019-01-16T05:55:45.048Z,99505.70
2019-01-16T05:57:02.984Z,99507.39
2019-01-16T05:58:08.523Z,99510.06
2019-01-16T05:59:11.538Z,99507.39
2019-01-16T06:00:15.256Z,99504.72
2019-01-16T06:01:21.058Z,99506.06
2019-01-16T06:02:27.015Z,99510.06
2019-01-16T06:03:33.004Z,99507.03
2019-01-16T06:04:44.888Z,99462.69
2019-01-16T06:05:47.900Z,99508.21
2019-01-16T06:06:50.922Z,99508.21
2019-01-16T06:07:56.601Z,99507.73
2019-01-16T06:09:02.505Z,99509.72
2019-01-16T06:10:24.193Z,99511.39
2019-01-16T06:11:27.214Z,99506.05
2019-01-16T06:12:46.902Z,99512.05
2019-01-16T06:13:49.913Z,99514.05
2019-01-16T06:14:55.709Z,99514.03
2019-01-16T06:16:07.744Z,99506.17
2019-01-16T06:17:10.765Z,99515.53
2019-01-16T06:18:30.342Z,99501.33
2019-01-16T06:19:42.210Z,99509.33
2019-01-16T06:20:53.852Z,99512.65
2019-01-16T06:22:13.372Z,99511.30
2019-01-16T06:23:32.881Z,99512.98
2019-01-16T06:24:41.746Z,99517.30
2019-01-16T06:25:44.760Z,99513.95
2019-01-16T06:26:50.440Z,99511.92
2019-01-16T06:28:09.914Z,99511.42
2019-01-16T06:29:15.609Z,99508.21
2019-01-16T06:30:21.304Z,99511.88
2019-01-16T06:31:24.317Z,99511.70
2019-01-16T06:32:44.107Z,99510.19
2019-01-16T06:33:47.132Z,99510.83
2019-01-16T06:34:50.188Z,99510.94
2019-01-16T06:35:53.205Z,99515.95
2019-01-16T06:37:02.005Z,99512.05
2019-01-16T06:38:10.742Z,99511.34
2019-01-16T06:39:13.767Z,99512.33
2019-01-16T06:40:22.317Z,99515.96
2019-01-16T06:41:28.100Z,99515.41
2019-01-16T06:42:49.049Z,99512.87
2019-01-16T06:44:00.838Z,99511.83
2019-01-16T06:45:03.981Z,99518.45
2019-01-16T06:46:15.933Z,99513.73
2019-01-16T06:47:18.958Z,99512.39
2019-01-16T06:48:22.047Z,99507.84
2019-01-16T06:49:41.273Z,99512.67
2019-01-16T06:50:53.236Z,99506.77
2019-01-16T06:51:56.259Z,99500.89
2019-01-16T06:52:59.275Z,99498.66
2019-01-16T06:54:04.933Z,99503.16
2019-01-16T06:55:19.748Z,99501.45
2019-01-16T06:56:25.382Z,99498.42
2019-01-16T06:57:43.547Z,99501.26
2019-01-16T06:59:01.770Z,99495.21
2019-01-16T07:00:11.355Z,99495.34
2019-01-16T07:01:14.370Z,99487.14
2019-01-16T07:02:23.010Z,99494.65
2019-01-16T07:03:28.622Z,99498.30
2019-01-16T07:04:37.442Z,99489.25
2019-01-16T07:05:46.188Z,99494.27
2019-01-16T07:06:52.039Z,99493.75
2019-01-16T07:08:07.043Z,99494.08
2019-01-16T07:09:13.092Z,99491.23
2019-01-16T07:10:30.788Z,99492.37
2019-01-16T07:11:33.800Z,99494.88
2019-01-16T07:12:39.336Z,99487.66
2019-01-16T07:13:44.900Z,99487.48
2019-01-16T07:14:59.756Z,99480.11
2019-01-16T07:16:14.780Z,99484.94
2019-01-16T07:17:17.800Z,99484.77
2019-01-16T07:18:26.597Z,99483.43
2019-01-16T07:19:29.669Z,99485.09
2019-01-16T07:20:49.060Z,99486.43
2019-01-16T07:21:57.976Z,99468.84
2019-01-16T07:23:03.504Z,99492.11
2019-01-16T07:24:09.039Z,99492.76
2019-01-16T07:25:23.928Z,99488.42
2019-01-16T07:26:35.942Z,99479.91
2019-01-16T07:27:44.887Z,99494.91
2019-01-16T07:28:50.427Z,99485.86
2019-01-16T07:30:11.330Z,99485.37
2019-01-16T07:31:23.160Z,99481.67
2019-01-16T07:32:26.191Z,99484.35
2019-01-16T07:33:38.211Z,99484.03
2019-01-16T07:34:53.259Z,99487.88
2019-01-16T07:36:05.398Z,99484.67
2019-01-16T07:37:26.268Z,99486.55
2019-01-16T07:38:32.047Z,99491.70
2019-01-16T07:39:37.768Z,99482.00
2019-01-16T07:40:57.080Z,99478.83
2019-01-16T07:42:06.535Z,99485.20
2019-01-16T07:43:12.330Z,99480.66
2019-01-16T07:44:18.053Z,99479.84
2019-01-16T07:45:29.712Z,99479.00
2019-01-16T07:46:41.586Z,99477.66
2019-01-16T07:48:02.538Z,99480.34
2019-01-16T07:49:11.457Z,99479.00
2019-01-16T07:50:17.719Z,99478.67
2019-01-16T07:51:20.861Z,99478.15
2019-01-16T07:52:26.657Z,99478.35
2019-01-16T07:53:29.668Z,99478.35
2019-01-16T07:54:32.686Z,99470.48
2019-01-16T07:55:38.232Z,99475.67
2019-01-16T07:56:46.756Z,99472.99
2019-01-16T07:57:55.533Z,99474.66
2019-01-16T07:59:13.622Z,99476.00
2019-01-16T08:00:19.536Z,99464.44
2019-01-16T08:01:39.380Z,99456.00
2019-01-16T08:02:42.397Z,99476.48
2019-01-16T08:04:00.369Z,99468.66
2019-01-16T08:05:19.808Z,99469.99
2019-01-16T08:06:22.796Z,99463.47
2019-01-16T08:07:28.405Z,99464.31
2019-01-16T08:08:36.999Z,99458.63
2019-01-16T08:09:42.565Z,99453.45
2019-01-16T08:10:45.574Z,99458.63
2019-01-16T08:11:51.088Z,99457.30
2019-01-16T08:13:10.484Z,99455.95
2019-01-16T08:14:25.361Z,99458.11
2019-01-16T08:15:45.021Z,99455.63
2019-01-16T08:17:04.777Z,99456.77
2019-01-16T08:18:24.445Z,99461.31
2019-01-16T08:19:43.990Z,99460.14
2019-01-16T08:20:47.009Z,99458.31
2019-01-16T08:22:07.978Z,99463.67
2019-01-16T08:23:20.184Z,99459.13
2019-01-16T08:24:39.997Z,99454.34
2019-01-16T08:25:43.014Z,99462.13
2019-01-16T08:26:46.027Z,99461.64
2019-01-16T08:27:54.702Z,99456.77
2019-01-16T08:28:57.716Z,99455.43
2019-01-16T08:30:09.552Z,99453.40
2019-01-16T08:31:15.402Z,99451.57
2019-01-16T08:32:21.373Z,99453.55
2019-01-16T08:33:39.528Z,99453.06
2019-01-16T08:34:45.073Z,99452.86
2019-01-16T08:35:53.885Z,99451.52
2019-01-16T08:36:59.400Z,99455.86
2019-01-16T08:38:02.419Z,99461.38
2019-01-16T08:39:08.141Z,99456.02
2019-01-16T08:40:11.254Z,99458.49
2019-01-16T08:41:17.043Z,99455.81
2019-01-16T08:42:22.785Z,99456.13
2019-01-16T08:43:31.705Z,99450.61
2019-01-16T08:44:34.749Z,99450.08
2019-01-16T08:45:43.354Z,99448.25
2019-01-16T08:46:46.370Z,99448.58
2019-01-16T08:48:01.415Z,99449.91
2019-01-16T08:49:07.186Z,99453.41
2019-01-16T08:50:32.618Z,99448.89
2019-01-16T08:51:36.770Z,99450.73
2019-01-16T08:52:39.798Z,99453.41
2019-01-16T08:53:42.812Z,99450.23
2019-01-16T08:54:48.624Z,99449.39
2019-01-16T08:56:00.485Z,99456.93
2019-01-16T08:57:12.104Z,99461.27
2019-01-16T08:58:31.648Z,99464.12
2019-01-16T08:59:37.279Z,99463.30
2019-01-16T09:00:45.882Z,99457.10
2019-01-16T09:02:00.994Z,99454.63
2019-01-16T09:03:18.980Z,99461.64
2019-01-16T09:04:38.649Z,99460.48
2019-01-16T09:05:44.172Z,99456.45
2019-01-16T09:06:47.234Z,99467.37
2019-01-16T09:07:52.865Z,99458.17
2019-01-16T09:09:12.684Z,99468.39
2019-01-16T09:10:27.357Z,99468.88
2019-01-16T09:11:30.373Z,99465.88
2019-01-16T09:12:48.332Z,99470.10
2019-01-16T09:13:54.142Z,99460.73
2019-01-16T09:15:13.661Z,99465.44
2019-01-16T09:16:19.505Z,99459.76
2019-01-16T09:17:22.519Z,99457.57
2019-01-16T09:18:41.991Z,99461.09
2019-01-16T09:19:45.011Z,99459.76
2019-01-16T09:20:48.026Z,99461.59
2019-01-16T09:22:05.963Z,99460.25
2019-01-16T09:23:20.886Z,99465.11
2019-01-16T09:24:23.916Z,99457.41
2019-01-16T09:25:45.080Z,99461.42
2019-01-16T09:26:59.867Z,99462.92
2019-01-16T09:28:05.701Z,99465.11
2019-01-16T09:29:11.481Z,99467.27
2019-01-16T09:30:27.285Z,99469.13
2019-01-16T09:31:30.368Z,99468.61
2019-01-16T09:32:42.399Z,99468.61
2019-01-16T09:33:45.411Z,99464.09
2019-01-16T09:34:50.941Z,99458.42
2019-01-16T09:35:53.993Z,99463.08
2019-01-16T09:37:06.016Z,99457.20
2019-01-16T09:38:09.034Z,99463.08
2019-01-16T09:39:23.803Z,99464.22
2019-01-16T09:40:38.494Z,99465.39
2019-01-16T09:41:41.531Z,99466.73
2019-01-16T09:42:59.460Z,99457.84
2019-01-16T09:44:05.190Z,99456.83
2019-01-16T09:45:23.922Z,99450.66
2019-01-16T09:46:43.156Z,99456.50
2019-01-16T09:48:00.832Z,99452.00
2019-01-16T09:49:03.917Z,99452.81
2019-01-16T09:50:20.872Z,99453.13
2019-01-16T09:51:29.693Z,99455.32
2019-01-16T09:52:50.448Z,99453.13
2019-01-16T09:54:08.363Z,99456.13
2019-01-16T09:55:11.383Z,99455.81
2019-01-16T09:56:23.340Z,99453.98
2019-01-16T09:57:29.148Z,99448.62
2019-01-16T09:58:34.699Z,99450.77
2019-01-16T09:59:40.248Z,99445.42
2019-01-16T10:00:43.378Z,99442.42
2019-01-16T10:01:58.585Z,99445.42
2019-01-16T10:03:18.171Z,99440.27
2019-01-16T10:04:21.197Z,99441.60
2019-01-16T10:05:24.232Z,99435.40
2019-01-16T10:06:39.398Z,99439.94
2019-01-16T10:07:44.920Z,99429.92
2019-01-16T10:08:47.982Z,99431.27
2019-01-16T10:09:51.004Z,99427.73
2019-01-16T10:10:54.024Z,99427.09
2019-01-16T10:12:13.752Z,99432.45
2019-01-16T10:13:22.322Z,99438.66
2019-01-16T10:14:25.356Z,99426.45
2019-01-16T10:15:31.145Z,99429.13
2019-01-16T10:16:39.915Z,99429.94
2019-01-16T10:17:48.489Z,99424.58
2019-01-16T10:19:03.656Z,99422.75
2019-01-16T10:20:21.063Z,99419.75
2019-01-16T10:21:24.064Z,99418.41
2019-01-16T10:22:32.671Z,99413.23
2019-01-16T10:23:35.688Z,99415.09
2019-01-16T10:24:41.580Z,99415.91
2019-01-16T10:25:47.615Z,99416.75
2019-01-16T10:27:07.373Z,99417.77
2019-01-16T10:28:10.392Z,99410.75
2019-01-16T10:29:18.990Z,99416.11
2019-01-16T10:30:34.445Z,99415.58
2019-01-16T10:31:43.244Z,99410.55
2019-01-16T10:33:01.574Z,99411.56
2019-01-16T10:34:10.549Z,99412.21
2019-01-16T10:35:13.572Z,99409.73
2019-01-16T10:36:22.379Z,99408.19
2019-01-16T10:37:28.337Z,99408.19
2019-01-16T10:38:47.777Z,99408.02
2019-01-16T10:40:03.565Z,99400.48
2019-01-16T10:41:06.843Z,99398.65
2019-01-16T10:42:24.695Z,99398.16
2019-01-16T10:43:27.719Z,99397.63
2019-01-16T10:44:30.732Z,99404.33
2019-01-16T10:45:39.627Z,99401.97
2019-01-16T10:46:45.156Z,99397.63
2019-01-16T10:47:50.705Z,99397.63
2019-01-16T10:49:02.564Z,99386.59
2019-01-16T10:50:11.932Z,99387.77
2019-01-16T10:51:24.057Z,99386.10
2019-01-16T10:52:43.773Z,99378.88
2019-01-16T10:53:49.355Z,99377.55
2019-01-16T10:54:52.379Z,99375.88
2019-01-16T10:55:55.389Z,99373.52
2019-01-16T10:57:10.260Z,99374.86
2019-01-16T10:58:16.045Z,99376.73
2019-01-16T10:59:35.653Z,99368.34
2019-01-16T11:00:55.023Z,99374.54
2019-01-16T11:02:06.668Z,99371.02
2019-01-16T11:03:27.628Z,99362.48
2019-01-16T11:04:30.650Z,99363.83
2019-01-16T11:05:45.576Z,99368.34
2019-01-16T11:07:00.269Z,99368.55
2019-01-16T11:08:03.284Z,99373.38
2019-01-16T11:09:17.859Z,99376.58
2019-01-16T11:10:23.391Z,99370.70
2019-01-16T11:11:38.316Z,99363.19
2019-01-16T11:12:44.381Z,99363.50
2019-01-16T11:13:47.398Z,99361.32
2019-01-16T11:14:50.448Z,99360.51
2019-01-16T11:16:05.368Z,99362.86
2019-01-16T11:17:26.284Z,99356.34
2019-01-16T11:18:41.105Z,99350.49
2019-01-16T11:19:49.955Z,99348.83
2019-01-16T11:20:53.016Z,99348.83
2019-01-16T11:21:58.913Z,99357.88
2019-01-16T11:23:01.949Z,99351.19
2019-01-16T11:24:23.232Z,99343.33
2019-01-16T11:25:42.583Z,99345.19
2019-01-16T11:26:48.141Z,99344.87
2019-01-16T11:27:51.148Z,99348.88
2019-01-16T11:28:56.921Z,99350.22
2019-01-16T11:30:17.914Z,99349.06
2019-01-16T11:31:20.927Z,99349.58
2019-01-16T11:32:23.977Z,99333.94
2019-01-16T11:33:35.758Z,99349.26
2019-01-16T11:34:50.844Z,99345.94
2019-01-16T11:36:11.748Z,99343.26
2019-01-16T11:37:32.960Z,99345.09
2019-01-16T11:38:35.984Z,99346.63
2019-01-16T11:39:44.911Z,99343.95
2019-01-16T11:40:56.782Z,99342.99
2019-01-16T11:42:15.026Z,99342.99
2019-01-16T11:43:18.085Z,99336.47
2019-01-16T11:44:21.101Z,99335.98
2019-01-16T11:45:24.321Z,99334.31
2019-01-16T11:46:45.658Z,99335.98
2019-01-16T11:47:51.449Z,99332.45
2019-01-16T11:48:58.033Z,99328.96
2019-01-16T11:50:03.595Z,99326.61
2019-01-16T11:51:24.858Z,99326.77
2019-01-16T11:52:30.507Z,99323.61
2019-01-16T11:53:36.524Z,99317.41
2019-01-16T11:54:57.509Z,99316.91
2019-01-16T11:56:06.408Z,99317.08
2019-01-16T11:57:09.428Z,99313.88
2019-01-16T11:58:21.333Z,99314.90
2019-01-16T11:59:39.207Z,99309.87
2019-01-16T12:00:48.476Z,99301.84
2019-01-16T12:02:07.920Z,99306.38
2019-01-16T12:03:27.337Z,99301.52
2019-01-16T12:04:30.360Z,99305.04
2019-01-16T12:05:48.210Z,99304.19
2019-01-16T12:06:51.241Z,99302.21
2019-01-16T12:08:10.997Z,99301.40
2019-01-16T12:09:15.005Z,99295.20
2019-01-16T12:10:24.088Z,99295.20
2019-01-16T12:11:29.958Z,99293.86
2019-01-16T12:12:35.583Z,99288.50
2019-01-16T12:13:47.434Z,99289.03
2019-01-16T12:15:02.548Z,99290.37
2019-01-16T12:16:05.565Z,99284.17
2019-01-16T12:17:08.580Z,99285.50
2019-01-16T12:18:29.676Z,99282.34
2019-01-16T12:19:32.694Z,99285.83
2019-01-16T12:20:35.708Z,99279.66
2019-01-16T12:21:47.564Z,99281.48
2019-01-16T12:22:50.590Z,99285.50
2019-01-16T12:24:08.627Z,99281.31
2019-01-16T12:25:20.603Z,99282.34
2019-01-16T12:26:40.025Z,99279.13
2019-01-16T12:27:43.043Z,99280.16
2019-01-16T12:28:57.906Z,99273.78
2019-01-16T12:30:00.988Z,99283.15
2019-01-16T12:31:04.011Z,99276.78
2019-01-16T12:32:07.026Z,99277.80
2019-01-16T12:33:15.880Z,99269.77
2019-01-16T12:34:21.677Z,99272.77
2019-01-16T12:35:24.767Z,99266.07
2019-01-16T12:36:27.784Z,99261.73
2019-01-16T12:37:39.544Z,99265.58
2019-01-16T12:38:45.084Z,99267.41
2019-01-16T12:39:50.688Z,99262.05
2019-01-16T12:40:59.285Z,99260.22
2019-01-16T12:42:07.816Z,99255.36
2019-01-16T12:43:19.735Z,99244.86
2019-01-16T12:44:22.741Z,99249.19
2019-01-16T12:45:40.426Z,99245.17
2019-01-16T12:47:01.435Z,99245.98
2019-01-16T12:48:04.440Z,99245.50
2019-01-16T12:49:23.700Z,99243.14
2019-01-16T12:50:36.021Z,99244.97
2019-01-16T12:51:47.643Z,99250.64
2019-01-16T12:52:54.285Z,99252.83
2019-01-16T12:53:57.504Z,99247.97
2019-01-16T12:55:00.523Z,99244.97
2019-01-16T12:56:03.531Z,99243.63
2019-01-16T12:57:12.170Z,99242.61
2019-01-16T12:58:15.207Z,99243.46
2019-01-16T12:59:33.411Z,99240.78
2019-01-16T13:00:39.210Z,99236.23
2019-01-16T13:01:48.292Z,99230.07
2019-01-16T13:03:00.177Z,99230.89
2019-01-16T13:04:06.014Z,99222.86
2019-01-16T13:05:09.229Z,99222.86
2019-01-16T13:06:28.887Z,99221.02
2019-01-16T13:07:31.908Z,99215.17
2019-01-16T13:08:38.801Z,99216.83
2019-01-16T13:09:44.533Z,99211.97
2019-01-16T13:10:59.647Z,99207.64
2019-01-16T13:12:05.686Z,99215.49
2019-01-16T13:13:20.487Z,99210.14
2019-01-16T13:14:32.288Z,99212.81
2019-01-16T13:15:38.071Z,99209.13
2019-01-16T13:16:43.848Z,99213.14
2019-01-16T13:17:55.711Z,99211.80
2019-01-16T13:19:01.265Z,99210.45
2019-01-16T13:20:10.122Z,99215.29
2019-01-16T13:21:22.209Z,99210.25
2019-01-16T13:22:25.238Z,99213.45
2019-01-16T13:23:40.558Z,99212.93
2019-01-16T13:24:52.460Z,99213.25
2019-01-16T13:25:58.474Z,99208.91
2019-01-16T13:27:04.338Z,99206.23
2019-01-16T13:28:23.778Z,99207.41
2019-01-16T13:29:38.676Z,99202.05
2019-01-16T13:30:44.245Z,99195.20
2019-01-16T13:31:50.067Z,99200.70
2019-01-16T13:33:01.832Z,99187.50
2019-01-16T13:34:20.077Z,99186.68
2019-01-16T13:35:23.092Z,99179.47
2019-01-16T13:36:26.112Z,99176.99
2019-01-16T13:37:41.155Z,99172.28
2019-01-16T13:39:00.990Z,99175.97